Skip to Main Content
SEARCH:
Location Air RH Dwp Precip Type Wind Speed Wind Gust Direction Pavement Temperature Date/Time
Hatem Bridge US 40 E/B 34 84 29 None Calm 4 mph NW 36 - 36 1/21/2018 9:10:00 AM
I-270 at I-370 45 68 35 None Calm Calm N 43 - 46 1/21/2018 9:10:00 AM
I-270 at MD-109 39 86 35 None Calm Calm E 40 - 41 1/21/2018 9:05:00 AM
I-495 at American Legion Bridge 36 88 33 None Calm 4 mph NE 40 - 41 1/21/2018 9:10:00 AM
I-68 at Savage Mt 43 100 43 None Calm 8 mph SW 41 - 42 1/21/2018 9:10:00 AM
I-68 at Sideling Hill 47 91 44 None Calm Calm N 45 - 45 1/21/2018 9:10:00 AM
I-68 at US 219 40 100 40 None 14 mph 26 mph W 40 - 42 1/21/2018 9:10:00 AM
I-68 at WV Line 43 92 41 None Calm 8 mph W 42 - 44 1/21/2018 9:10:00 AM
I-695 at I-83 38 79 32 None Calm 5 mph SE 41 - 42 1/21/2018 9:10:00 AM
I-695 on FSK Bridge 45 69 35 None Calm 7 mph N - 1/21/2018 9:12:00 AM
I-70 at Fred-Wash Co. 45 80 39 None Calm 5 mph E 45 - 46 1/21/2018 9:10:00 AM
I-70 at I-695 44 76 37 None Calm 5 mph N 43 - 45 1/21/2018 9:10:00 AM
I-70 at I-81 46 77 39 None Calm 4 mph S - 1/21/2018 9:10:00 AM
I-70 at MD-27 46 76 40 None Calm Calm SE 47 - 47 1/21/2018 9:10:00 AM
I-70 at MD-32 39 83 35 None Calm Calm SE 41 - 42 1/21/2018 9:10:00 AM
I-83 at MD-137 40 82 35 None Calm Calm N 42 - 42 1/21/2018 9:10:00 AM
I-95 at I-695 NE 42 71 33 None Calm Calm N 42 - 45 1/21/2018 9:10:00 AM
I-95 at Patuxent River 38 80 33 None Calm 6 mph N 40 - 42 1/21/2018 9:05:00 AM
I-95 at Tydings Bridge 36 81 31 None Calm 7 mph NW - 1/21/2018 9:10:00 AM
I-95/495 at I-295 41 70 32 None Calm Calm W 41 - 43 1/21/2018 9:10:00 AM
I-97 at MD-100 42 71 34 None Calm 4 mph S 43 - 44 1/21/2018 9:10:00 AM
I-97 at MD-32 41 72 33 None 9 mph 10 mph N 42 - 42 1/21/2018 9:10:00 AM
MD 20 at MD 21 41 73 34 None Calm Calm N 41 - 41 1/21/2018 9:10:00 AM
MD 231 at Patuxent River 34 89 31 None Calm 4 mph S 39 - 39 1/21/2018 9:10:00 AM
MD 260 at Cox Rd 42 71 33 None Calm 4 mph SW 42 - 42 1/21/2018 9:10:00 AM
MD-135 at Salt Dome 40 100 40 None Calm 9 mph NW 39 - 39 1/21/2018 9:10:00 AM
MD-140 at MD-97 - - - No Data Available - - No Data Available -
MD-200 EB at Bonifant Rd 38 79 32 None Calm Calm NW 39 - 39 1/21/2018 9:10:00 AM
MD-200 WB at Muncaster Mill Rd 39 74 32 None Calm Calm E 40 - 41 1/21/2018 9:10:00 AM
MD-213 at Sassafras River 35 91 33 None Calm Calm SW 38 - 38 1/21/2018 9:10:00 AM
MD-24 at Rock St Park 34 93 32 None Calm Calm N 33 - 33 1/21/2018 9:10:00 AM
MD-30 at PA Line 46 80 41 None Calm Calm N 43 - 43 1/21/2018 9:10:00 AM
MD-33 at Knapps Narrows Drawbridge 37 82 32 None Calm Calm E 41 - 41 1/21/2018 9:10:00 AM
MD-344 at MD-224 37 83 33 None Calm Calm SE 37 - 37 1/21/2018 9:10:00 AM
MD-4 at Patuxent River 40 85 36 None - - No Data Available 40 - 42 1/21/2018 9:10:00 AM
MD-404 at Choptank River 36 79 30 None Calm Calm SE 38 - 39 1/21/2018 9:10:00 AM
MD-43 at MD-150 41 77 34 None Calm Calm N 42 - 43 1/21/2018 9:10:00 AM
MD-51 at Oldtown Salt Dome 43 84 38 None Calm Calm N 43 - 43 1/21/2018 9:10:00 AM
MD-64 at MD-418 41 84 36 None Calm Calm NE 42 - 44 1/21/2018 9:10:00 AM
US 301 at MD 305 38 80 33 None Calm Calm N 40 - 41 1/21/2018 9:10:00 AM
US-1 at Baltimore / Harford Co. Line 35 83 30 None Calm Calm NW 37 - 38 1/21/2018 9:10:00 AM
US-1 at Conowingo Dam 34 90 32 None Calm Calm N 38 - 38 1/21/2018 9:05:00 AM
US-13 at US-113 40 80 34 None Calm Calm S 42 - 45 1/21/2018 9:10:00 AM
US-13 at US-50 43 68 33 None Calm 4 mph SW - 1/21/2018 9:10:00 AM
US-15 at MD-140 41 79 35 None Calm Calm E 42 - 42 1/21/2018 9:10:00 AM
US-301 at MD-5 42 79 36 None Calm 4 mph S 42 - 44 1/21/2018 9:05:00 AM
US-301 at Potomac 36 84 32 None 4 mph 5 mph S 38 - 41 1/21/2018 9:10:00 AM
US-301 on HWN Bridge - - - None - - No Data Available 42 - 42 1/21/2018 9:11:00 AM
US-340 at MD-180 42 73 34 None Calm Calm N 45 - 49 1/21/2018 9:10:00 AM
US-50 at Choptank 38 87 34 None Calm Calm SE 39 - 40 1/21/2018 9:10:00 AM
US-50 at I-95 42 75 35 None Calm Calm W 43 - 45 1/21/2018 9:05:00 AM
US-50 at MD-2 42 75 34 None Calm Calm S 42 - 44 1/21/2018 9:10:00 AM
US-50 at MD-331 36 83 31 None Calm Calm SE 39 - 45 1/21/2018 9:10:00 AM
US-50 at OC Drawbridge 41 76 35 None Calm Calm N 45 - 45 1/21/2018 9:10:00 AM
US-50 at Table Rock Rd 39 100 39 None 5 mph 10 mph W 41 - 41 1/21/2018 9:10:00 AM
US-50 Kent Narrow Bridge 37 87 34 None Calm Calm SE 40 - 40 1/21/2018 9:10:00 AM
WPL Pier 31 47 63 35 None Calm Calm NW 48 - 48 1/21/2018 9:10:00 AM
Location Air RH Dwp Precip Type Wind Speed Wind Gust Direction Pavement Temperature Date/Time